sensor_id;sensor_type;location;lat;lon;timestamp;temperature;humidity
6307;DHT22;3186;54.062;9.962;2022-09-09T00:00:19;16.50;99.90
6307;DHT22;3186;54.062;9.962;2022-09-09T00:09:01;16.50;99.90
6307;DHT22;3186;54.062;9.962;2022-09-09T00:11:44;16.40;99.90
6307;DHT22;3186;54.062;9.962;2022-09-09T00:22:29;16.50;99.90
6307;DHT22;3186;54.062;9.962;2022-09-09T00:25:15;16.60;99.90
6307;DHT22;3186;54.062;9.962;2022-09-09T00:27:50;16.50;99.90
6307;DHT22;3186;54.062;9.962;2022-09-09T00:30:24;16.60;99.90
6307;DHT22;3186;54.062;9.962;2022-09-09T00:32:58;16.40;99.90
6307;DHT22;3186;54.062;9.962;2022-09-09T00:35:31;16.40;99.90
6307;DHT22;3186;54.062;9.962;2022-09-09T00:43:33;16.50;99.90
6307;DHT22;3186;54.062;9.962;2022-09-09T00:57:29;16.40;99.90
6307;DHT22;3186;54.062;9.962;2022-09-09T01:08:01;16.50;99.90
6307;DHT22;3186;54.062;9.962;2022-09-09T01:10:53;16.60;99.90
6307;DHT22;3186;54.062;9.962;2022-09-09T01:13:29;16.50;99.90
6307;DHT22;3186;54.062;9.962;2022-09-09T01:16:04;16.50;99.90
6307;DHT22;3186;54.062;9.962;2022-09-09T01:18:49;16.50;99.90
6307;DHT22;3186;54.062;9.962;2022-09-09T01:27:11;16.40;99.90
6307;DHT22;3186;54.062;9.962;2022-09-09T01:29:39;16.50;99.90
6307;DHT22;3186;54.062;9.962;2022-09-09T01:32:40;16.40;99.90
6307;DHT22;3186;54.062;9.962;2022-09-09T01:37:45;16.40;99.90
6307;DHT22;3186;54.062;9.962;2022-09-09T01:40:11;16.20;99.90
6307;DHT22;3186;54.062;9.962;2022-09-09T01:42:37;16.30;99.90
6307;DHT22;3186;54.062;9.962;2022-09-09T01:45:04;16.40;99.90
6307;DHT22;3186;54.062;9.962;2022-09-09T01:47:30;16.50;99.90
6307;DHT22;3186;54.062;9.962;2022-09-09T01:50:10;16.40;99.90
6307;DHT22;3186;54.062;9.962;2022-09-09T01:52:37;16.20;99.90
6307;DHT22;3186;54.062;9.962;2022-09-09T01:55:06;16.20;99.90
6307;DHT22;3186;54.062;9.962;2022-09-09T01:57:50;16.20;99.90
6307;DHT22;3186;54.062;9.962;2022-09-09T02:00:18;16.40;99.90
6307;DHT22;3186;54.062;9.962;2022-09-09T02:03:24;16.40;99.90
6307;DHT22;3186;54.062;9.962;2022-09-09T02:08:47;16.30;99.90
6307;DHT22;3186;54.062;9.962;2022-09-09T02:11:17;16.20;99.90
6307;DHT22;3186;54.062;9.962;2022-09-09T02:14:01;16.30;99.90
6307;DHT22;3186;54.062;9.962;2022-09-09T02:16:40;16.30;99.90
6307;DHT22;3186;54.062;9.962;2022-09-09T02:19:14;16.30;99.90
6307;DHT22;3186;54.062;9.962;2022-09-09T02:21:59;16.80;99.90
6307;DHT22;3186;54.062;9.962;2022-09-09T02:24:27;16.30;99.90
6307;DHT22;3186;54.062;9.962;2022-09-09T02:27:08;16.40;99.90
6307;DHT22;3186;54.062;9.962;2022-09-09T02:29:38;16.40;99.90
6307;DHT22;3186;54.062;9.962;2022-09-09T02:32:12;16.40;99.90
6307;DHT22;3186;54.062;9.962;2022-09-09T02:34:46;16.30;99.90
6307;DHT22;3186;54.062;9.962;2022-09-09T02:37:16;16.30;99.90
6307;DHT22;3186;54.062;9.962;2022-09-09T02:39:47;16.30;99.90
6307;DHT22;3186;54.062;9.962;2022-09-09T02:42:16;16.40;99.90
6307;DHT22;3186;54.062;9.962;2022-09-09T02:44:44;16.40;99.90
6307;DHT22;3186;54.062;9.962;2022-09-09T02:47:30;16.40;99.90
6307;DHT22;3186;54.062;9.962;2022-09-09T02:50:12;16.40;99.90
6307;DHT22;3186;54.062;9.962;2022-09-09T02:58:05;16.30;99.90
6307;DHT22;3186;54.062;9.962;2022-09-09T03:00:33;16.40;99.90
6307;DHT22;3186;54.062;9.962;2022-09-09T03:03:03;16.40;99.90
6307;DHT22;3186;54.062;9.962;2022-09-09T03:05:31;16.40;99.90
6307;DHT22;3186;54.062;9.962;2022-09-09T03:07:58;16.40;99.90
6307;DHT22;3186;54.062;9.962;2022-09-09T03:10:24;16.40;99.90
6307;DHT22;3186;54.062;9.962;2022-09-09T03:12:50;16.40;99.90
6307;DHT22;3186;54.062;9.962;2022-09-09T03:15:17;16.40;99.90
6307;DHT22;3186;54.062;9.962;2022-09-09T03:17:43;16.40;99.90
6307;DHT22;3186;54.062;9.962;2022-09-09T03:20:09;16.40;99.90
6307;DHT22;3186;54.062;9.962;2022-09-09T03:22:36;16.40;99.90
6307;DHT22;3186;54.062;9.962;2022-09-09T03:25:03;16.40;99.90
6307;DHT22;3186;54.062;9.962;2022-09-09T03:27:29;16.40;99.90
6307;DHT22;3186;54.062;9.962;2022-09-09T03:29:56;16.40;99.90
6307;DHT22;3186;54.062;9.962;2022-09-09T03:32:24;16.40;99.90
6307;DHT22;3186;54.062;9.962;2022-09-09T03:34:52;16.40;99.90
6307;DHT22;3186;54.062;9.962;2022-09-09T03:37:19;16.40;99.90
6307;DHT22;3186;54.062;9.962;2022-09-09T03:39:46;16.40;99.90
6307;DHT22;3186;54.062;9.962;2022-09-09T03:42:13;16.40;99.90
6307;DHT22;3186;54.062;9.962;2022-09-09T03:44:40;16.40;99.90
6307;DHT22;3186;54.062;9.962;2022-09-09T03:47:08;16.40;99.90
6307;DHT22;3186;54.062;9.962;2022-09-09T03:49:34;16.30;99.90
6307;DHT22;3186;54.062;9.962;2022-09-09T03:52:01;16.30;99.90
6307;DHT22;3186;54.062;9.962;2022-09-09T03:54:26;16.40;99.90
6307;DHT22;3186;54.062;9.962;2022-09-09T03:56:53;16.40;99.90
6307;DHT22;3186;54.062;9.962;2022-09-09T03:59:21;16.40;99.90
6307;DHT22;3186;54.062;9.962;2022-09-09T04:01:49;16.40;99.90
6307;DHT22;3186;54.062;9.962;2022-09-09T04:04:15;16.40;99.90
6307;DHT22;3186;54.062;9.962;2022-09-09T04:06:41;16.40;99.90
6307;DHT22;3186;54.062;9.962;2022-09-09T04:09:07;16.30;99.90
6307;DHT22;3186;54.062;9.962;2022-09-09T04:11:34;16.30;99.90
6307;DHT22;3186;54.062;9.962;2022-09-09T04:14:00;16.40;99.90
6307;DHT22;3186;54.062;9.962;2022-09-09T04:16:28;16.30;99.90
6307;DHT22;3186;54.062;9.962;2022-09-09T04:18:54;16.30;99.90
6307;DHT22;3186;54.062;9.962;2022-09-09T04:21:21;16.40;99.90
6307;DHT22;3186;54.062;9.962;2022-09-09T04:23:47;16.30;99.90
6307;DHT22;3186;54.062;9.962;2022-09-09T04:26:13;16.30;99.90
6307;DHT22;3186;54.062;9.962;2022-09-09T04:28:39;16.40;99.90
6307;DHT22;3186;54.062;9.962;2022-09-09T04:31:17;16.20;99.90
6307;DHT22;3186;54.062;9.962;2022-09-09T04:33:44;16.20;99.90
6307;DHT22;3186;54.062;9.962;2022-09-09T04:36:10;16.30;99.90
6307;DHT22;3186;54.062;9.962;2022-09-09T04:38:36;16.30;99.90
6307;DHT22;3186;54.062;9.962;2022-09-09T04:41:03;16.20;99.90
6307;DHT22;3186;54.062;9.962;2022-09-09T04:43:33;16.30;99.90
6307;DHT22;3186;54.062;9.962;2022-09-09T04:46:02;16.40;99.90
6307;DHT22;3186;54.062;9.962;2022-09-09T04:48:29;16.30;99.90
6307;DHT22;3186;54.062;9.962;2022-09-09T04:50:59;16.30;99.90
6307;DHT22;3186;54.062;9.962;2022-09-09T04:53:25;16.30;99.90
6307;DHT22;3186;54.062;9.962;2022-09-09T04:56:11;16.20;99.90
6307;DHT22;3186;54.062;9.962;2022-09-09T04:58:41;16.30;99.90
6307;DHT22;3186;54.062;9.962;2022-09-09T05:01:17;16.40;99.90
6307;DHT22;3186;54.062;9.962;2022-09-09T05:03:45;16.40;99.90
6307;DHT22;3186;54.062;9.962;2022-09-09T05:06:17;16.40;99.90
6307;DHT22;3186;54.062;9.962;2022-09-09T05:08:45;16.40;99.90
6307;DHT22;3186;54.062;9.962;2022-09-09T05:11:19;16.40;99.90
6307;DHT22;3186;54.062;9.962;2022-09-09T05:13:46;16.40;99.90
6307;DHT22;3186;54.062;9.962;2022-09-09T05:16:13;16.40;99.90
6307;DHT22;3186;54.062;9.962;2022-09-09T05:18:40;16.30;99.90
6307;DHT22;3186;54.062;9.962;2022-09-09T05:21:07;16.30;99.90
6307;DHT22;3186;54.062;9.962;2022-09-09T05:23:34;16.30;99.90
6307;DHT22;3186;54.062;9.962;2022-09-09T05:26:01;16.20;99.90
6307;DHT22;3186;54.062;9.962;2022-09-09T05:28:29;16.20;99.90
6307;DHT22;3186;54.062;9.962;2022-09-09T05:31:04;16.10;99.90
6307;DHT22;3186;54.062;9.962;2022-09-09T05:33:32;16.20;99.90
6307;DHT22;3186;54.062;9.962;2022-09-09T05:36:04;16.20;99.90
6307;DHT22;3186;54.062;9.962;2022-09-09T05:38:31;16.20;99.90
6307;DHT22;3186;54.062;9.962;2022-09-09T05:40:59;16.30;99.90
6307;DHT22;3186;54.062;9.962;2022-09-09T05:43:26;16.30;99.90
6307;DHT22;3186;54.062;9.962;2022-09-09T05:46:07;16.30;99.90
6307;DHT22;3186;54.062;9.962;2022-09-09T05:48:35;16.40;99.90
6307;DHT22;3186;54.062;9.962;2022-09-09T05:51:06;16.40;99.90
6307;DHT22;3186;54.062;9.962;2022-09-09T05:53:36;16.40;99.90
6307;DHT22;3186;54.062;9.962;2022-09-09T05:56:05;16.40;99.90
6307;DHT22;3186;54.062;9.962;2022-09-09T05:58:34;16.30;99.90
6307;DHT22;3186;54.062;9.962;2022-09-09T06:01:10;16.30;99.90
6307;DHT22;3186;54.062;9.962;2022-09-09T06:03:38;16.40;99.90
6307;DHT22;3186;54.062;9.962;2022-09-09T06:06:09;16.40;99.90
6307;DHT22;3186;54.062;9.962;2022-09-09T06:08:37;16.40;99.90
6307;DHT22;3186;54.062;9.962;2022-09-09T06:11:13;16.40;99.90
6307;DHT22;3186;54.062;9.962;2022-09-09T06:13:39;16.40;99.90
6307;DHT22;3186;54.062;9.962;2022-09-09T06:16:17;16.40;99.90
6307;DHT22;3186;54.062;9.962;2022-09-09T06:18:44;16.40;99.90
6307;DHT22;3186;54.062;9.962;2022-09-09T06:21:19;16.50;99.90
6307;DHT22;3186;54.062;9.962;2022-09-09T06:23:47;16.50;99.90
6307;DHT22;3186;54.062;9.962;2022-09-09T06:26:18;16.50;99.90
6307;DHT22;3186;54.062;9.962;2022-09-09T06:28:46;16.50;99.90
6307;DHT22;3186;54.062;9.962;2022-09-09T06:31:15;16.50;99.90
6307;DHT22;3186;54.062;9.962;2022-09-09T06:33:49;16.50;99.90
6307;DHT22;3186;54.062;9.962;2022-09-09T06:36:29;16.50;99.90
6307;DHT22;3186;54.062;9.962;2022-09-09T06:38:56;16.60;99.90
6307;DHT22;3186;54.062;9.962;2022-09-09T06:41:24;16.60;99.90
6307;DHT22;3186;54.062;9.962;2022-09-09T06:43:52;16.60;99.90
6307;DHT22;3186;54.062;9.962;2022-09-09T06:46:26;16.60;99.90
6307;DHT22;3186;54.062;9.962;2022-09-09T06:48:54;16.60;99.90
6307;DHT22;3186;54.062;9.962;2022-09-09T06:51:30;16.50;99.90
6307;DHT22;3186;54.062;9.962;2022-09-09T06:53:58;16.60;99.90
6307;DHT22;3186;54.062;9.962;2022-09-09T06:56:30;16.60;99.90
6307;DHT22;3186;54.062;9.962;2022-09-09T06:58:59;16.70;99.90
6307;DHT22;3186;54.062;9.962;2022-09-09T07:01:34;16.70;99.90
6307;DHT22;3186;54.062;9.962;2022-09-09T07:04:05;16.80;99.90
6307;DHT22;3186;54.062;9.962;2022-09-09T07:06:36;16.80;99.90
6307;DHT22;3186;54.062;9.962;2022-09-09T07:09:05;16.90;99.90
6307;DHT22;3186;54.062;9.962;2022-09-09T07:11:37;16.90;99.90
6307;DHT22;3186;54.062;9.962;2022-09-09T07:14:03;17.00;99.90
6307;DHT22;3186;54.062;9.962;2022-09-09T07:16:29;16.90;99.90
6307;DHT22;3186;54.062;9.962;2022-09-09T07:18:58;17.00;99.90
6307;DHT22;3186;54.062;9.962;2022-09-09T07:21:26;16.80;99.90
6307;DHT22;3186;54.062;9.962;2022-09-09T07:23:53;16.80;99.90
6307;DHT22;3186;54.062;9.962;2022-09-09T07:26:21;17.00;99.90
6307;DHT22;3186;54.062;9.962;2022-09-09T07:28:47;17.00;99.90
6307;DHT22;3186;54.062;9.962;2022-09-09T07:33:43;17.20;99.90
6307;DHT22;3186;54.062;9.962;2022-09-09T07:36:24;17.30;99.90
6307;DHT22;3186;54.062;9.962;2022-09-09T07:39:00;17.20;99.90
6307;DHT22;3186;54.062;9.962;2022-09-09T07:41:29;17.10;99.90
6307;DHT22;3186;54.062;9.962;2022-09-09T07:43:57;17.10;99.90
6307;DHT22;3186;54.062;9.962;2022-09-09T07:46:26;17.10;99.90
6307;DHT22;3186;54.062;9.962;2022-09-09T07:48:56;17.20;99.90
6307;DHT22;3186;54.062;9.962;2022-09-09T07:51:30;17.20;99.90
6307;DHT22;3186;54.062;9.962;2022-09-09T07:54:00;17.30;99.90
6307;DHT22;3186;54.062;9.962;2022-09-09T07:56:29;17.30;99.90
6307;DHT22;3186;54.062;9.962;2022-09-09T07:58:57;17.30;99.90
6307;DHT22;3186;54.062;9.962;2022-09-09T08:01:45;17.30;99.90
6307;DHT22;3186;54.062;9.962;2022-09-09T08:04:18;17.40;99.90
6307;DHT22;3186;54.062;9.962;2022-09-09T08:06:51;17.40;99.90
6307;DHT22;3186;54.062;9.962;2022-09-09T08:09:20;17.40;99.90
6307;DHT22;3186;54.062;9.962;2022-09-09T08:11:47;17.50;99.90
6307;DHT22;3186;54.062;9.962;2022-09-09T08:14:14;17.50;99.90
6307;DHT22;3186;54.062;9.962;2022-09-09T08:16:44;17.60;99.90
6307;DHT22;3186;54.062;9.962;2022-09-09T08:19:12;17.50;99.90
6307;DHT22;3186;54.062;9.962;2022-09-09T08:21:42;17.50;99.90
6307;DHT22;3186;54.062;9.962;2022-09-09T08:24:10;17.60;99.90
6307;DHT22;3186;54.062;9.962;2022-09-09T08:26:47;17.60;99.90
6307;DHT22;3186;54.062;9.962;2022-09-09T08:29:20;17.70;99.90
6307;DHT22;3186;54.062;9.962;2022-09-09T08:31:49;17.80;99.90
6307;DHT22;3186;54.062;9.962;2022-09-09T08:34:15;17.80;99.90
6307;DHT22;3186;54.062;9.962;2022-09-09T08:36:44;17.90;99.90
6307;DHT22;3186;54.062;9.962;2022-09-09T08:39:14;18.00;99.90
6307;DHT22;3186;54.062;9.962;2022-09-09T08:52:02;18.60;99.90
6307;DHT22;3186;54.062;9.962;2022-09-09T08:54:33;18.90;99.90
6307;DHT22;3186;54.062;9.962;2022-09-09T08:57:00;19.10;99.90
6307;DHT22;3186;54.062;9.962;2022-09-09T08:59:26;19.20;99.90
6307;DHT22;3186;54.062;9.962;2022-09-09T09:04:50;19.30;99.90
6307;DHT22;3186;54.062;9.962;2022-09-09T09:07:37;19.30;99.90
6307;DHT22;3186;54.062;9.962;2022-09-09T09:12:58;19.60;99.90
6307;DHT22;3186;54.062;9.962;2022-09-09T09:15:36;19.80;99.90
6307;DHT22;3186;54.062;9.962;2022-09-09T09:18:05;19.70;99.90
6307;DHT22;3186;54.062;9.962;2022-09-09T09:23:16;19.80;99.90
6307;DHT22;3186;54.062;9.962;2022-09-09T09:25:45;20.00;99.90
6307;DHT22;3186;54.062;9.962;2022-09-09T09:28:18;20.20;99.90
6307;DHT22;3186;54.062;9.962;2022-09-09T09:31:01;20.00;99.90
6307;DHT22;3186;54.062;9.962;2022-09-09T09:33:47;20.00;99.90
6307;DHT22;3186;54.062;9.962;2022-09-09T09:36:15;20.50;99.90
6307;DHT22;3186;54.062;9.962;2022-09-09T09:38:57;20.70;99.90
6307;DHT22;3186;54.062;9.962;2022-09-09T09:41:37;20.80;99.90
6307;DHT22;3186;54.062;9.962;2022-09-09T09:44:18;20.70;99.90
6307;DHT22;3186;54.062;9.962;2022-09-09T09:46:47;20.80;99.90
6307;DHT22;3186;54.062;9.962;2022-09-09T09:49:13;20.60;99.90
6307;DHT22;3186;54.062;9.962;2022-09-09T09:51:39;20.90;99.90
6307;DHT22;3186;54.062;9.962;2022-09-09T09:54:25;21.20;99.90
6307;DHT22;3186;54.062;9.962;2022-09-09T09:56:56;21.10;99.90
6307;DHT22;3186;54.062;9.962;2022-09-09T09:59:34;21.10;99.90
6307;DHT22;3186;54.062;9.962;2022-09-09T10:02:23;21.10;99.90
6307;DHT22;3186;54.062;9.962;2022-09-09T10:05:04;21.30;99.90
6307;DHT22;3186;54.062;9.962;2022-09-09T10:07:33;21.60;99.90
6307;DHT22;3186;54.062;9.962;2022-09-09T10:09:59;21.70;99.90
6307;DHT22;3186;54.062;9.962;2022-09-09T10:26:51;23.10;99.90
6307;DHT22;3186;54.062;9.962;2022-09-09T10:35:04;23.70;99.90
6307;DHT22;3186;54.062;9.962;2022-09-09T10:40:33;23.50;99.90
6307;DHT22;3186;54.062;9.962;2022-09-09T10:54:23;24.80;99.90
6307;DHT22;3186;54.062;9.962;2022-09-09T10:56:58;24.70;99.90
6307;DHT22;3186;54.062;9.962;2022-09-09T10:59:31;24.80;99.90
6307;DHT22;3186;54.062;9.962;2022-09-09T11:02:11;24.60;99.90
6307;DHT22;3186;54.062;9.962;2022-09-09T11:04:40;24.70;99.90
6307;DHT22;3186;54.062;9.962;2022-09-09T11:07:10;24.90;99.90
6307;DHT22;3186;54.062;9.962;2022-09-09T11:09:45;24.70;99.90
6307;DHT22;3186;54.062;9.962;2022-09-09T11:12:18;24.90;99.90
6307;DHT22;3186;54.062;9.962;2022-09-09T11:18:01;25.40;99.90
6307;DHT22;3186;54.062;9.962;2022-09-09T11:20:12;25.70;99.90
6307;DHT22;3186;54.062;9.962;2022-09-09T11:23:01;26.00;99.90
6307;DHT22;3186;54.062;9.962;2022-09-09T11:25:45;25.90;99.90
6307;DHT22;3186;54.062;9.962;2022-09-09T11:33:49;25.20;99.90
6307;DHT22;3186;54.062;9.962;2022-09-09T11:36:56;25.70;99.90
6307;DHT22;3186;54.062;9.962;2022-09-09T11:42:18;25.20;99.90
6307;DHT22;3186;54.062;9.962;2022-09-09T11:44:45;25.70;99.90
6307;DHT22;3186;54.062;9.962;2022-09-09T11:47:27;25.80;99.90
6307;DHT22;3186;54.062;9.962;2022-09-09T11:52:43;25.20;99.90
6307;DHT22;3186;54.062;9.962;2022-09-09T11:58:04;25.70;99.90
6307;DHT22;3186;54.062;9.962;2022-09-09T12:02:59;25.40;99.90
6307;DHT22;3186;54.062;9.962;2022-09-09T12:05:44;25.20;99.90
6307;DHT22;3186;54.062;9.962;2022-09-09T12:08:15;25.60;99.90
6307;DHT22;3186;54.062;9.962;2022-09-09T12:10:53;25.90;99.90
6307;DHT22;3186;54.062;9.962;2022-09-09T12:13:22;26.20;99.90
6307;DHT22;3186;54.062;9.962;2022-09-09T12:15:57;26.00;99.90
6307;DHT22;3186;54.062;9.962;2022-09-09T12:18:33;26.10;99.90
6307;DHT22;3186;54.062;9.962;2022-09-09T12:26:34;26.20;99.90
6307;DHT22;3186;54.062;9.962;2022-09-09T12:32:02;26.40;99.90
6307;DHT22;3186;54.062;9.962;2022-09-09T12:40:03;26.90;99.90
6307;DHT22;3186;54.062;9.962;2022-09-09T12:42:30;26.80;99.90
6307;DHT22;3186;54.062;9.962;2022-09-09T12:45:15;27.50;99.90
6307;DHT22;3186;54.062;9.962;2022-09-09T12:47:52;27.10;99.90
6307;DHT22;3186;54.062;9.962;2022-09-09T12:50:23;27.10;99.90
6307;DHT22;3186;54.062;9.962;2022-09-09T12:52:55;27.10;99.90
6307;DHT22;3186;54.062;9.962;2022-09-09T12:55:32;27.20;99.90
6307;DHT22;3186;54.062;9.962;2022-09-09T12:58:05;26.80;99.90
6307;DHT22;3186;54.062;9.962;2022-09-09T13:00:33;27.40;99.90
6307;DHT22;3186;54.062;9.962;2022-09-09T13:03:01;27.30;99.90
6307;DHT22;3186;54.062;9.962;2022-09-09T13:05:38;27.00;99.90
6307;DHT22;3186;54.062;9.962;2022-09-09T13:08:10;26.80;99.90
6307;DHT22;3186;54.062;9.962;2022-09-09T13:10:43;27.30;99.90
6307;DHT22;3186;54.062;9.962;2022-09-09T13:13:37;27.40;95.30
6307;DHT22;3186;54.062;9.962;2022-09-09T13:16:05;27.10;99.90
6307;DHT22;3186;54.062;9.962;2022-09-09T13:18:40;27.30;99.90
6307;DHT22;3186;54.062;9.962;2022-09-09T13:21:07;27.30;99.90
6307;DHT22;3186;54.062;9.962;2022-09-09T13:23:35;27.30;99.90
6307;DHT22;3186;54.062;9.962;2022-09-09T13:26:22;27.40;99.90
6307;DHT22;3186;54.062;9.962;2022-09-09T13:28:49;27.60;99.90
6307;DHT22;3186;54.062;9.962;2022-09-09T13:31:24;27.70;99.90
6307;DHT22;3186;54.062;9.962;2022-09-09T13:33:53;27.20;98.30
6307;DHT22;3186;54.062;9.962;2022-09-09T13:36:32;27.10;99.90
6307;DHT22;3186;54.062;9.962;2022-09-09T13:39:00;27.30;99.90
6307;DHT22;3186;54.062;9.962;2022-09-09T13:41:42;27.60;99.90
6307;DHT22;3186;54.062;9.962;2022-09-09T13:44:39;27.00;88.00
6307;DHT22;3186;54.062;9.962;2022-09-09T13:47:19;27.40;99.90
6307;DHT22;3186;54.062;9.962;2022-09-09T13:49:45;27.60;99.90
6307;DHT22;3186;54.062;9.962;2022-09-09T13:52:13;27.60;99.90
6307;DHT22;3186;54.062;9.962;2022-09-09T13:54:40;26.80;99.90
6307;DHT22;3186;54.062;9.962;2022-09-09T13:57:22;27.30;99.90
6307;DHT22;3186;54.062;9.962;2022-09-09T13:59:48;27.10;99.90
6307;DHT22;3186;54.062;9.962;2022-09-09T14:02:15;26.70;99.90
6307;DHT22;3186;54.062;9.962;2022-09-09T14:04:42;26.40;99.90
6307;DHT22;3186;54.062;9.962;2022-09-09T14:07:13;26.60;99.90
6307;DHT22;3186;54.062;9.962;2022-09-09T14:09:40;26.70;99.90
6307;DHT22;3186;54.062;9.962;2022-09-09T14:12:12;26.90;99.90
6307;DHT22;3186;54.062;9.962;2022-09-09T14:14:39;26.80;99.90
6307;DHT22;3186;54.062;9.962;2022-09-09T14:17:05;26.40;99.90
6307;DHT22;3186;54.062;9.962;2022-09-09T14:19:32;26.20;99.90
6307;DHT22;3186;54.062;9.962;2022-09-09T14:21:58;26.30;99.90
6307;DHT22;3186;54.062;9.962;2022-09-09T14:24:24;26.10;99.90
6307;DHT22;3186;54.062;9.962;2022-09-09T14:26:51;26.10;99.90
6307;DHT22;3186;54.062;9.962;2022-09-09T14:29:17;26.10;99.90
6307;DHT22;3186;54.062;9.962;2022-09-09T14:31:42;25.80;99.90
6307;DHT22;3186;54.062;9.962;2022-09-09T14:34:08;25.60;99.90
6307;DHT22;3186;54.062;9.962;2022-09-09T14:36:37;25.20;99.90
6307;DHT22;3186;54.062;9.962;2022-09-09T14:39:03;24.80;99.90
6307;DHT22;3186;54.062;9.962;2022-09-09T14:41:30;24.70;99.90
6307;DHT22;3186;54.062;9.962;2022-09-09T14:43:56;23.70;99.90
6307;DHT22;3186;54.062;9.962;2022-09-09T14:46:22;23.60;99.90
6307;DHT22;3186;54.062;9.962;2022-09-09T14:48:48;23.70;99.90
6307;DHT22;3186;54.062;9.962;2022-09-09T14:51:23;23.80;99.90
6307;DHT22;3186;54.062;9.962;2022-09-09T14:53:51;24.20;99.90
6307;DHT22;3186;54.062;9.962;2022-09-09T14:56:20;24.20;99.90
6307;DHT22;3186;54.062;9.962;2022-09-09T14:58:47;22.90;99.90
6307;DHT22;3186;54.062;9.962;2022-09-09T15:01:16;23.70;99.90
6307;DHT22;3186;54.062;9.962;2022-09-09T15:03:48;23.70;99.90
6307;DHT22;3186;54.062;9.962;2022-09-09T15:06:14;24.10;99.90
6307;DHT22;3186;54.062;9.962;2022-09-09T15:08:42;24.10;99.90
6307;DHT22;3186;54.062;9.962;2022-09-09T15:11:10;24.20;99.90
6307;DHT22;3186;54.062;9.962;2022-09-09T15:13:37;24.20;99.90
6307;DHT22;3186;54.062;9.962;2022-09-09T15:16:05;24.20;99.90
6307;DHT22;3186;54.062;9.962;2022-09-09T15:18:31;24.10;99.90
6307;DHT22;3186;54.062;9.962;2022-09-09T15:20:59;23.90;99.90
6307;DHT22;3186;54.062;9.962;2022-09-09T15:23:27;23.90;99.90
6307;DHT22;3186;54.062;9.962;2022-09-09T15:25:54;23.70;99.90
6307;DHT22;3186;54.062;9.962;2022-09-09T15:28:21;23.70;99.90
6307;DHT22;3186;54.062;9.962;2022-09-09T15:30:51;23.60;99.90
6307;DHT22;3186;54.062;9.962;2022-09-09T15:33:18;23.50;99.90
6307;DHT22;3186;54.062;9.962;2022-09-09T15:35:45;23.30;99.90
6307;DHT22;3186;54.062;9.962;2022-09-09T15:38:11;23.30;99.90
6307;DHT22;3186;54.062;9.962;2022-09-09T15:40:39;23.10;99.90
6307;DHT22;3186;54.062;9.962;2022-09-09T15:43:06;23.00;99.90
6307;DHT22;3186;54.062;9.962;2022-09-09T15:45:33;22.90;99.90
6307;DHT22;3186;54.062;9.962;2022-09-09T15:48:02;22.80;99.90
6307;DHT22;3186;54.062;9.962;2022-09-09T15:50:28;22.80;99.90
6307;DHT22;3186;54.062;9.962;2022-09-09T15:52:57;22.70;99.90
6307;DHT22;3186;54.062;9.962;2022-09-09T15:55:22;22.60;99.90
6307;DHT22;3186;54.062;9.962;2022-09-09T15:57:51;22.60;99.90
6307;DHT22;3186;54.062;9.962;2022-09-09T16:00:20;22.50;99.90
6307;DHT22;3186;54.062;9.962;2022-09-09T16:02:48;22.40;99.90
6307;DHT22;3186;54.062;9.962;2022-09-09T16:05:14;22.30;99.90
6307;DHT22;3186;54.062;9.962;2022-09-09T16:10:09;22.20;99.90
6307;DHT22;3186;54.062;9.962;2022-09-09T16:12:35;22.30;99.90
6307;DHT22;3186;54.062;9.962;2022-09-09T16:15:00;22.10;99.90
6307;DHT22;3186;54.062;9.962;2022-09-09T16:17:26;22.00;99.90
6307;DHT22;3186;54.062;9.962;2022-09-09T16:19:53;21.70;99.90
6307;DHT22;3186;54.062;9.962;2022-09-09T16:22:20;21.90;99.90
6307;DHT22;3186;54.062;9.962;2022-09-09T16:24:46;22.20;99.90
6307;DHT22;3186;54.062;9.962;2022-09-09T16:27:11;21.80;99.90
6307;DHT22;3186;54.062;9.962;2022-09-09T16:29:37;21.80;99.90
6307;DHT22;3186;54.062;9.962;2022-09-09T16:32:03;21.70;99.90
6307;DHT22;3186;54.062;9.962;2022-09-09T16:34:29;21.70;99.90
6307;DHT22;3186;54.062;9.962;2022-09-09T16:36:55;21.70;99.90
6307;DHT22;3186;54.062;9.962;2022-09-09T16:39:21;21.60;99.90
6307;DHT22;3186;54.062;9.962;2022-09-09T16:41:48;21.60;99.90
6307;DHT22;3186;54.062;9.962;2022-09-09T16:44:15;21.50;99.90
6307;DHT22;3186;54.062;9.962;2022-09-09T16:46:44;21.50;99.90
6307;DHT22;3186;54.062;9.962;2022-09-09T16:49:12;21.40;99.90
6307;DHT22;3186;54.062;9.962;2022-09-09T16:51:49;21.40;99.90
6307;DHT22;3186;54.062;9.962;2022-09-09T16:54:19;21.40;99.90
6307;DHT22;3186;54.062;9.962;2022-09-09T16:56:47;21.40;99.90
6307;DHT22;3186;54.062;9.962;2022-09-09T16:59:19;21.40;99.90
6307;DHT22;3186;54.062;9.962;2022-09-09T17:01:48;21.40;99.90
6307;DHT22;3186;54.062;9.962;2022-09-09T17:04:19;21.20;99.90
6307;DHT22;3186;54.062;9.962;2022-09-09T17:06:50;21.20;99.90
6307;DHT22;3186;54.062;9.962;2022-09-09T17:09:17;21.20;99.90
6307;DHT22;3186;54.062;9.962;2022-09-09T17:11:43;21.20;99.90
6307;DHT22;3186;54.062;9.962;2022-09-09T17:14:14;21.10;99.90
6307;DHT22;3186;54.062;9.962;2022-09-09T17:16:40;21.00;99.90
6307;DHT22;3186;54.062;9.962;2022-09-09T17:19:06;21.10;99.90
6307;DHT22;3186;54.062;9.962;2022-09-09T17:21:33;21.00;99.90
6307;DHT22;3186;54.062;9.962;2022-09-09T17:24:00;20.70;99.90
6307;DHT22;3186;54.062;9.962;2022-09-09T17:26:28;21.00;99.90
6307;DHT22;3186;54.062;9.962;2022-09-09T17:28:55;21.00;99.90
6307;DHT22;3186;54.062;9.962;2022-09-09T17:31:23;20.90;99.90
6307;DHT22;3186;54.062;9.962;2022-09-09T17:33:50;20.90;99.90
6307;DHT22;3186;54.062;9.962;2022-09-09T17:36:20;20.90;99.90
6307;DHT22;3186;54.062;9.962;2022-09-09T17:38:51;20.80;99.90
6307;DHT22;3186;54.062;9.962;2022-09-09T17:41:25;20.80;99.90
6307;DHT22;3186;54.062;9.962;2022-09-09T17:43:52;20.70;99.90
6307;DHT22;3186;54.062;9.962;2022-09-09T17:46:22;20.70;99.90
6307;DHT22;3186;54.062;9.962;2022-09-09T17:48:50;20.70;99.90
6307;DHT22;3186;54.062;9.962;2022-09-09T17:51:20;20.60;99.90
6307;DHT22;3186;54.062;9.962;2022-09-09T17:53:50;20.60;99.90
6307;DHT22;3186;54.062;9.962;2022-09-09T17:56:19;20.50;99.90
6307;DHT22;3186;54.062;9.962;2022-09-09T17:58:49;20.50;99.90
6307;DHT22;3186;54.062;9.962;2022-09-09T18:01:23;20.40;99.90
6307;DHT22;3186;54.062;9.962;2022-09-09T18:03:50;20.40;99.90
6307;DHT22;3186;54.062;9.962;2022-09-09T18:06:29;20.40;99.90
6307;DHT22;3186;54.062;9.962;2022-09-09T18:09:05;20.30;99.90
6307;DHT22;3186;54.062;9.962;2022-09-09T18:11:35;20.60;99.90
6307;DHT22;3186;54.062;9.962;2022-09-09T18:14:04;20.20;99.90
6307;DHT22;3186;54.062;9.962;2022-09-09T18:16:33;19.90;99.90
6307;DHT22;3186;54.062;9.962;2022-09-09T18:19:02;20.00;99.90
6307;DHT22;3186;54.062;9.962;2022-09-09T18:21:30;20.00;99.90
6307;DHT22;3186;54.062;9.962;2022-09-09T18:23:59;19.90;99.90
6307;DHT22;3186;54.062;9.962;2022-09-09T18:26:26;19.90;99.90
6307;DHT22;3186;54.062;9.962;2022-09-09T18:28:55;19.90;99.90
6307;DHT22;3186;54.062;9.962;2022-09-09T18:31:22;19.80;99.90
6307;DHT22;3186;54.062;9.962;2022-09-09T18:33:49;19.80;99.90
6307;DHT22;3186;54.062;9.962;2022-09-09T18:39:05;19.70;99.90
6307;DHT22;3186;54.062;9.962;2022-09-09T18:41:34;19.60;99.90
6307;DHT22;3186;54.062;9.962;2022-09-09T18:44:03;19.60;99.90
6307;DHT22;3186;54.062;9.962;2022-09-09T18:46:31;19.60;99.90
6307;DHT22;3186;54.062;9.962;2022-09-09T18:48:57;19.50;99.90
6307;DHT22;3186;54.062;9.962;2022-09-09T18:51:26;19.50;99.90
6307;DHT22;3186;54.062;9.962;2022-09-09T18:53:57;19.40;99.90